Terminal Aerodrome Forecast
Issued by NWS

Home | Current Version | Previous Version | Text Only | Print | Product List | Glossary On
Versions: 1 2 3 4 5 6 7 8 9 10 11 12 13 14 15 16 17 18 19 20 21 22 23 24 25 26
000
FTUS45 KTFX 270108 AAA
TAFCTB
TAF AMD
KCTB 270108Z 2701/2724 02010KT P6SM VCSH SCT035 OVC060
      TEMPO 2701/2703 5SM -SN BR BKN035
     FM270300 03010KT 5SM -SN BR SCT015 OVC025
      TEMPO 2703/2707 1SM -SN BR BKN012
     FM270800 05008KT 5SM -SN SCT015 OVC025 PROB30 2712/2716 2SM -SN
      BR BKN012
     FM271800 12008KT P6SM SCT020 OVC040=

USA.gov is the U.S. government's official web portal to all federal, state and local government web resources and services.